sensor_id;sensor_type;location;lat;lon;timestamp;pressure;altitude;pressure_sealevel;temperature;humidity
2785;BME280;57944;48.722;9.316;2023-01-15T00:01:32;96957.56;;;10.05;100.00
2785;BME280;57944;48.722;9.316;2023-01-15T00:04:05;96960.63;;;9.95;100.00
2785;BME280;57944;48.722;9.316;2023-01-15T00:06:38;96952.22;;;9.95;100.00
2785;BME280;57944;48.722;9.316;2023-01-15T00:09:14;96946.75;;;9.91;100.00
2785;BME280;57944;48.722;9.316;2023-01-15T00:11:44;96935.31;;;9.82;100.00
2785;BME280;57944;48.722;9.316;2023-01-15T00:14:14;96924.28;;;9.88;100.00
2785;BME280;57944;48.722;9.316;2023-01-15T00:16:44;96922.09;;;9.92;100.00
2785;BME280;57944;48.722;9.316;2023-01-15T00:19:14;96918.63;;;9.86;100.00
2785;BME280;57944;48.722;9.316;2023-01-15T00:21:44;96921.09;;;9.74;100.00
2785;BME280;57944;48.722;9.316;2023-01-15T00:24:17;96909.97;;;9.75;100.00
2785;BME280;57944;48.722;9.316;2023-01-15T00:26:59;96910.72;;;9.76;100.00
2785;BME280;57944;48.722;9.316;2023-01-15T00:29:46;96895.41;;;9.64;100.00
2785;BME280;57944;48.722;9.316;2023-01-15T00:32:16;96893.41;;;9.66;100.00
2785;BME280;57944;48.722;9.316;2023-01-15T00:34:46;96887.97;;;9.62;100.00
2785;BME280;57944;48.722;9.316;2023-01-15T00:37:16;96895.31;;;9.52;100.00
2785;BME280;57944;48.722;9.316;2023-01-15T00:39:49;96896.31;;;9.51;100.00
2785;BME280;57944;48.722;9.316;2023-01-15T00:42:19;96904.28;;;9.55;100.00
2785;BME280;57944;48.722;9.316;2023-01-15T00:44:49;96881.47;;;9.48;100.00
2785;BME280;57944;48.722;9.316;2023-01-15T00:47:19;96882.53;;;9.59;100.00
2785;BME280;57944;48.722;9.316;2023-01-15T00:49:49;96873.72;;;9.61;100.00
2785;BME280;57944;48.722;9.316;2023-01-15T00:52:19;96871.28;;;9.67;100.00
2785;BME280;57944;48.722;9.316;2023-01-15T00:54:52;96860.56;;;9.65;100.00
2785;BME280;57944;48.722;9.316;2023-01-15T00:57:22;96859.28;;;9.74;100.00
2785;BME280;57944;48.722;9.316;2023-01-15T00:59:52;96857.56;;;9.86;100.00
2785;BME280;57944;48.722;9.316;2023-01-15T01:02:22;96850.44;;;9.95;100.00
2785;BME280;57944;48.722;9.316;2023-01-15T01:04:53;96844.53;;;9.94;100.00
2785;BME280;57944;48.722;9.316;2023-01-15T01:07:23;96837.28;;;9.98;100.00
2785;BME280;57944;48.722;9.316;2023-01-15T01:09:55;96833.09;;;10.03;100.00
2785;BME280;57944;48.722;9.316;2023-01-15T01:12:25;96830.88;;;10.07;100.00
2785;BME280;57944;48.722;9.316;2023-01-15T01:14:55;96827.69;;;10.12;100.00
2785;BME280;57944;48.722;9.316;2023-01-15T01:17:26;96826.13;;;10.11;100.00
2785;BME280;57944;48.722;9.316;2023-01-15T01:19:56;96816.50;;;10.13;100.00
2785;BME280;57944;48.722;9.316;2023-01-15T01:22:27;96821.22;;;9.97;100.00
2785;BME280;57944;48.722;9.316;2023-01-15T01:25:04;96823.06;;;9.90;100.00
2785;BME280;57944;48.722;9.316;2023-01-15T01:27:36;96826.94;;;9.93;100.00
2785;BME280;57944;48.722;9.316;2023-01-15T01:30:08;96817.38;;;9.76;100.00
2785;BME280;57944;48.722;9.316;2023-01-15T01:32:42;96809.09;;;9.81;100.00
2785;BME280;57944;48.722;9.316;2023-01-15T01:35:13;96815.72;;;9.82;100.00
2785;BME280;57944;48.722;9.316;2023-01-15T01:37:48;96826.25;;;9.85;100.00
2785;BME280;57944;48.722;9.316;2023-01-15T01:40:21;96825.03;;;9.88;100.00
2785;BME280;57944;48.722;9.316;2023-01-15T01:42:52;96827.28;;;9.96;100.00
2785;BME280;57944;48.722;9.316;2023-01-15T01:45:25;96822.44;;;9.95;100.00
2785;BME280;57944;48.722;9.316;2023-01-15T01:47:59;96816.44;;;9.89;100.00
2785;BME280;57944;48.722;9.316;2023-01-15T01:50:32;96821.44;;;9.96;100.00
2785;BME280;57944;48.722;9.316;2023-01-15T01:53:08;96816.00;;;9.92;100.00
2785;BME280;57944;48.722;9.316;2023-01-15T01:55:43;96814.38;;;9.98;100.00
2785;BME280;57944;48.722;9.316;2023-01-15T01:58:14;96802.19;;;10.00;100.00
2785;BME280;57944;48.722;9.316;2023-01-15T02:00:48;96800.00;;;10.03;100.00
2785;BME280;57944;48.722;9.316;2023-01-15T02:03:24;96805.31;;;10.14;100.00
2785;BME280;57944;48.722;9.316;2023-01-15T02:05:59;96803.59;;;10.26;100.00
2785;BME280;57944;48.722;9.316;2023-01-15T02:08:31;96800.88;;;10.39;100.00
2785;BME280;57944;48.722;9.316;2023-01-15T02:11:07;96802.75;;;10.56;100.00
2785;BME280;57944;48.722;9.316;2023-01-15T02:13:52;96789.03;;;10.68;100.00
2785;BME280;57944;48.722;9.316;2023-01-15T02:16:32;96783.19;;;10.68;100.00
2785;BME280;57944;48.722;9.316;2023-01-15T02:19:21;96787.25;;;10.69;100.00
2785;BME280;57944;48.722;9.316;2023-01-15T02:22:06;96782.84;;;10.88;100.00
2785;BME280;57944;48.722;9.316;2023-01-15T02:24:51;96772.50;;;10.94;100.00
2785;BME280;57944;48.722;9.316;2023-01-15T02:27:29;96772.31;;;10.84;100.00
2785;BME280;57944;48.722;9.316;2023-01-15T02:30:07;96765.41;;;10.96;100.00
2785;BME280;57944;48.722;9.316;2023-01-15T02:32:56;96771.19;;;11.04;100.00
2785;BME280;57944;48.722;9.316;2023-01-15T02:35:35;96764.06;;;11.06;100.00
2785;BME280;57944;48.722;9.316;2023-01-15T02:38:15;96757.44;;;11.05;100.00
2785;BME280;57944;48.722;9.316;2023-01-15T02:40:56;96754.66;;;11.06;100.00
2785;BME280;57944;48.722;9.316;2023-01-15T02:43:34;96759.63;;;11.13;100.00
2785;BME280;57944;48.722;9.316;2023-01-15T02:46:07;96750.44;;;11.12;100.00
2785;BME280;57944;48.722;9.316;2023-01-15T02:48:40;96759.78;;;11.06;100.00
2785;BME280;57944;48.722;9.316;2023-01-15T02:51:16;96756.53;;;11.11;100.00
2785;BME280;57944;48.722;9.316;2023-01-15T02:53:51;96751.88;;;11.08;100.00
2785;BME280;57944;48.722;9.316;2023-01-15T02:56:29;96755.63;;;11.17;100.00
2785;BME280;57944;48.722;9.316;2023-01-15T02:59:14;96752.66;;;11.20;100.00
2785;BME280;57944;48.722;9.316;2023-01-15T03:01:53;96747.44;;;11.15;100.00
2785;BME280;57944;48.722;9.316;2023-01-15T03:04:32;96746.31;;;11.11;100.00
2785;BME280;57944;48.722;9.316;2023-01-15T03:07:10;96747.53;;;11.20;100.00
2785;BME280;57944;48.722;9.316;2023-01-15T03:09:42;96731.72;;;11.06;100.00
2785;BME280;57944;48.722;9.316;2023-01-15T03:12:19;96730.63;;;10.90;100.00
2785;BME280;57944;48.722;9.316;2023-01-15T03:15:05;96737.09;;;10.81;100.00
2785;BME280;57944;48.722;9.316;2023-01-15T03:17:52;96736.19;;;10.87;100.00
2785;BME280;57944;48.722;9.316;2023-01-15T03:20:26;96733.75;;;10.92;100.00
2785;BME280;57944;48.722;9.316;2023-01-15T03:23:05;96729.09;;;10.89;100.00
2785;BME280;57944;48.722;9.316;2023-01-15T03:25:44;96726.69;;;10.71;100.00
2785;BME280;57944;48.722;9.316;2023-01-15T03:28:23;96726.13;;;10.69;100.00
2785;BME280;57944;48.722;9.316;2023-01-15T03:30:58;96717.81;;;10.50;100.00
2785;BME280;57944;48.722;9.316;2023-01-15T03:33:29;96726.69;;;10.47;100.00
2785;BME280;57944;48.722;9.316;2023-01-15T03:36:00;96720.03;;;10.58;100.00
2785;BME280;57944;48.722;9.316;2023-01-15T03:38:39;96718.63;;;10.50;100.00
2785;BME280;57944;48.722;9.316;2023-01-15T03:41:29;96711.63;;;10.58;100.00
2785;BME280;57944;48.722;9.316;2023-01-15T03:44:17;96725.81;;;10.54;100.00
2785;BME280;57944;48.722;9.316;2023-01-15T03:47:09;96713.84;;;10.42;100.00
2785;BME280;57944;48.722;9.316;2023-01-15T03:49:57;96698.44;;;10.25;100.00
2785;BME280;57944;48.722;9.316;2023-01-15T03:52:43;96713.34;;;10.10;100.00
2785;BME280;57944;48.722;9.316;2023-01-15T03:55:21;96711.22;;;9.95;100.00
2785;BME280;57944;48.722;9.316;2023-01-15T03:58:13;96716.09;;;9.97;100.00
2785;BME280;57944;48.722;9.316;2023-01-15T04:00:52;96705.13;;;9.84;100.00
2785;BME280;57944;48.722;9.316;2023-01-15T04:03:28;96701.09;;;9.77;100.00
2785;BME280;57944;48.722;9.316;2023-01-15T04:06:00;96708.75;;;9.89;100.00
2785;BME280;57944;48.722;9.316;2023-01-15T04:08:38;96714.28;;;9.85;100.00
2785;BME280;57944;48.722;9.316;2023-01-15T04:11:09;96701.50;;;9.92;100.00
2785;BME280;57944;48.722;9.316;2023-01-15T04:13:45;96696.28;;;9.87;100.00
2785;BME280;57944;48.722;9.316;2023-01-15T04:16:28;96698.25;;;9.85;100.00
2785;BME280;57944;48.722;9.316;2023-01-15T04:19:02;96691.50;;;9.91;100.00
2785;BME280;57944;48.722;9.316;2023-01-15T04:21:34;96689.75;;;9.91;100.00
2785;BME280;57944;48.722;9.316;2023-01-15T04:24:05;96686.34;;;9.97;100.00
2785;BME280;57944;48.722;9.316;2023-01-15T04:26:35;96679.09;;;9.82;100.00
2785;BME280;57944;48.722;9.316;2023-01-15T04:29:05;96673.13;;;9.89;100.00
2785;BME280;57944;48.722;9.316;2023-01-15T04:31:35;96669.16;;;9.81;100.00
2785;BME280;57944;48.722;9.316;2023-01-15T04:34:08;96668.03;;;9.77;100.00
2785;BME280;57944;48.722;9.316;2023-01-15T04:36:38;96669.38;;;9.79;100.00
2785;BME280;57944;48.722;9.316;2023-01-15T04:39:09;96669.38;;;9.91;100.00
2785;BME280;57944;48.722;9.316;2023-01-15T04:41:39;96667.09;;;10.01;100.00
2785;BME280;57944;48.722;9.316;2023-01-15T04:44:22;96672.84;;;10.09;100.00
2785;BME280;57944;48.722;9.316;2023-01-15T04:46:54;96669.28;;;10.21;100.00
2785;BME280;57944;48.722;9.316;2023-01-15T04:49:28;96665.44;;;10.31;100.00
2785;BME280;57944;48.722;9.316;2023-01-15T04:51:58;96671.53;;;10.41;100.00
2785;BME280;57944;48.722;9.316;2023-01-15T04:54:29;96668.53;;;10.44;100.00
2785;BME280;57944;48.722;9.316;2023-01-15T04:56:59;96668.19;;;10.52;100.00
2785;BME280;57944;48.722;9.316;2023-01-15T04:59:29;96659.91;;;10.57;100.00
2785;BME280;57944;48.722;9.316;2023-01-15T05:01:59;96667.41;;;10.64;100.00
2785;BME280;57944;48.722;9.316;2023-01-15T05:04:35;96646.38;;;10.68;100.00
2785;BME280;57944;48.722;9.316;2023-01-15T05:07:05;96656.13;;;10.60;100.00
2785;BME280;57944;48.722;9.316;2023-01-15T05:09:35;96650.25;;;10.71;100.00
2785;BME280;57944;48.722;9.316;2023-01-15T05:12:05;96656.00;;;10.66;100.00
2785;BME280;57944;48.722;9.316;2023-01-15T05:14:36;96662.63;;;10.79;100.00
2785;BME280;57944;48.722;9.316;2023-01-15T05:17:06;96658.63;;;10.83;100.00
2785;BME280;57944;48.722;9.316;2023-01-15T05:19:39;96657.28;;;10.92;100.00
2785;BME280;57944;48.722;9.316;2023-01-15T05:22:09;96655.63;;;10.86;100.00
2785;BME280;57944;48.722;9.316;2023-01-15T05:24:39;96655.09;;;10.84;100.00
2785;BME280;57944;48.722;9.316;2023-01-15T05:27:09;96643.75;;;10.92;100.00
2785;BME280;57944;48.722;9.316;2023-01-15T05:29:39;96645.53;;;10.91;100.00
2785;BME280;57944;48.722;9.316;2023-01-15T05:32:09;96647.97;;;10.86;100.00
2785;BME280;57944;48.722;9.316;2023-01-15T05:34:42;96649.53;;;10.87;100.00
2785;BME280;57944;48.722;9.316;2023-01-15T05:37:12;96659.03;;;10.92;100.00
2785;BME280;57944;48.722;9.316;2023-01-15T05:39:42;96675.94;;;10.81;100.00
2785;BME280;57944;48.722;9.316;2023-01-15T05:42:12;96695.44;;;10.64;100.00
2785;BME280;57944;48.722;9.316;2023-01-15T05:44:42;96724.47;;;10.39;100.00
2785;BME280;57944;48.722;9.316;2023-01-15T05:47:12;96732.94;;;9.68;100.00
2785;BME280;57944;48.722;9.316;2023-01-15T05:49:45;96743.34;;;8.81;100.00
2785;BME280;57944;48.722;9.316;2023-01-15T05:52:16;96745.91;;;8.31;100.00
2785;BME280;57944;48.722;9.316;2023-01-15T05:54:48;96734.47;;;7.90;100.00
2785;BME280;57944;48.722;9.316;2023-01-15T05:57:19;96759.03;;;7.64;100.00
2785;BME280;57944;48.722;9.316;2023-01-15T05:59:49;96755.41;;;7.47;100.00
2785;BME280;57944;48.722;9.316;2023-01-15T06:02:20;96748.97;;;7.37;100.00
2785;BME280;57944;48.722;9.316;2023-01-15T06:04:53;96762.47;;;7.31;100.00
2785;BME280;57944;48.722;9.316;2023-01-15T06:07:23;96765.81;;;7.25;100.00
2785;BME280;57944;48.722;9.316;2023-01-15T06:09:53;96776.53;;;7.27;100.00
2785;BME280;57944;48.722;9.316;2023-01-15T06:12:23;96757.63;;;7.23;100.00
2785;BME280;57944;48.722;9.316;2023-01-15T06:14:53;96764.69;;;7.08;100.00
2785;BME280;57944;48.722;9.316;2023-01-15T06:17:23;96775.97;;;7.12;100.00
2785;BME280;57944;48.722;9.316;2023-01-15T06:19:55;96769.00;;;7.01;100.00
2785;BME280;57944;48.722;9.316;2023-01-15T06:22:25;96778.34;;;6.93;100.00
2785;BME280;57944;48.722;9.316;2023-01-15T06:24:56;96779.56;;;6.91;100.00
2785;BME280;57944;48.722;9.316;2023-01-15T06:27:27;96794.94;;;6.83;100.00
2785;BME280;57944;48.722;9.316;2023-01-15T06:29:57;96800.22;;;6.75;100.00
2785;BME280;57944;48.722;9.316;2023-01-15T06:32:27;96795.53;;;6.65;100.00
2785;BME280;57944;48.722;9.316;2023-01-15T06:35:00;96806.84;;;6.69;100.00
2785;BME280;57944;48.722;9.316;2023-01-15T06:37:30;96809.56;;;6.61;100.00
2785;BME280;57944;48.722;9.316;2023-01-15T06:40:00;96816.97;;;6.56;100.00
2785;BME280;57944;48.722;9.316;2023-01-15T06:42:30;96826.09;;;6.57;100.00
2785;BME280;57944;48.722;9.316;2023-01-15T06:45:12;96828.25;;;6.46;100.00
2785;BME280;57944;48.722;9.316;2023-01-15T06:47:55;96843.63;;;6.45;100.00
2785;BME280;57944;48.722;9.316;2023-01-15T06:50:28;96841.66;;;6.40;100.00
2785;BME280;57944;48.722;9.316;2023-01-15T06:52:59;96844.19;;;6.40;100.00
2785;BME280;57944;48.722;9.316;2023-01-15T06:55:29;96856.84;;;6.40;100.00
2785;BME280;57944;48.722;9.316;2023-01-15T06:58:01;96843.03;;;6.36;100.00
2785;BME280;57944;48.722;9.316;2023-01-15T07:00:31;96854.31;;;6.40;100.00
2785;BME280;57944;48.722;9.316;2023-01-15T07:03:03;96859.16;;;6.29;100.00
2785;BME280;57944;48.722;9.316;2023-01-15T07:05:37;96863.63;;;6.20;100.00
2785;BME280;57944;48.722;9.316;2023-01-15T07:08:07;96880.72;;;6.11;100.00
2785;BME280;57944;48.722;9.316;2023-01-15T07:10:37;96888.31;;;6.04;100.00
2785;BME280;57944;48.722;9.316;2023-01-15T07:13:09;96902.47;;;5.99;100.00
2785;BME280;57944;48.722;9.316;2023-01-15T07:15:39;96908.09;;;5.94;100.00
2785;BME280;57944;48.722;9.316;2023-01-15T07:18:09;96911.31;;;5.81;100.00
2785;BME280;57944;48.722;9.316;2023-01-15T07:20:41;96921.81;;;5.78;100.00
2785;BME280;57944;48.722;9.316;2023-01-15T07:23:11;96916.34;;;5.75;100.00
2785;BME280;57944;48.722;9.316;2023-01-15T07:25:42;96929.75;;;5.69;100.00
2785;BME280;57944;48.722;9.316;2023-01-15T07:28:12;96941.78;;;5.67;100.00
2785;BME280;57944;48.722;9.316;2023-01-15T07:30:42;96948.53;;;5.59;100.00
2785;BME280;57944;48.722;9.316;2023-01-15T07:33:12;96949.03;;;5.48;100.00
2785;BME280;57944;48.722;9.316;2023-01-15T07:35:45;96957.06;;;5.52;100.00
2785;BME280;57944;48.722;9.316;2023-01-15T07:38:15;96966.66;;;5.35;100.00
2785;BME280;57944;48.722;9.316;2023-01-15T07:40:45;96957.88;;;5.31;100.00
2785;BME280;57944;48.722;9.316;2023-01-15T07:43:36;96964.41;;;5.19;100.00
2785;BME280;57944;48.722;9.316;2023-01-15T07:46:21;96971.50;;;5.08;100.00
2785;BME280;57944;48.722;9.316;2023-01-15T07:49:07;96967.59;;;5.06;100.00
2785;BME280;57944;48.722;9.316;2023-01-15T07:51:53;96968.34;;;5.06;100.00
2785;BME280;57944;48.722;9.316;2023-01-15T07:54:23;96977.03;;;4.97;100.00
2785;BME280;57944;48.722;9.316;2023-01-15T07:56:56;96989.81;;;4.96;100.00
2785;BME280;57944;48.722;9.316;2023-01-15T07:59:26;96994.34;;;5.00;100.00
2785;BME280;57944;48.722;9.316;2023-01-15T08:01:56;96996.97;;;4.92;100.00
2785;BME280;57944;48.722;9.316;2023-01-15T08:04:29;97018.50;;;4.88;100.00
2785;BME280;57944;48.722;9.316;2023-01-15T08:07:03;97028.00;;;4.86;100.00
2785;BME280;57944;48.722;9.316;2023-01-15T08:09:34;97019.09;;;4.90;100.00
2785;BME280;57944;48.722;9.316;2023-01-15T08:12:05;97023.44;;;4.96;100.00
2785;BME280;57944;48.722;9.316;2023-01-15T08:14:47;97042.84;;;4.96;100.00
2785;BME280;57944;48.722;9.316;2023-01-15T08:17:32;97041.00;;;5.04;100.00
2785;BME280;57944;48.722;9.316;2023-01-15T08:20:04;97048.69;;;5.18;100.00
2785;BME280;57944;48.722;9.316;2023-01-15T08:22:37;97048.78;;;5.09;100.00
2785;BME280;57944;48.722;9.316;2023-01-15T08:25:10;97045.34;;;5.10;100.00
2785;BME280;57944;48.722;9.316;2023-01-15T08:27:41;97044.97;;;5.13;100.00
2785;BME280;57944;48.722;9.316;2023-01-15T08:30:15;97048.28;;;5.14;100.00
2785;BME280;57944;48.722;9.316;2023-01-15T08:32:45;97052.78;;;5.19;100.00
2785;BME280;57944;48.722;9.316;2023-01-15T08:35:16;97061.50;;;5.16;100.00
2785;BME280;57944;48.722;9.316;2023-01-15T08:37:49;97065.66;;;5.24;100.00
2785;BME280;57944;48.722;9.316;2023-01-15T08:40:19;97081.28;;;5.34;100.00
2785;BME280;57944;48.722;9.316;2023-01-15T08:42:49;97086.22;;;5.21;100.00
2785;BME280;57944;48.722;9.316;2023-01-15T08:45:22;97092.44;;;5.03;100.00
2785;BME280;57944;48.722;9.316;2023-01-15T08:47:54;97100.63;;;5.05;100.00
2785;BME280;57944;48.722;9.316;2023-01-15T08:50:25;97111.00;;;5.10;100.00
2785;BME280;57944;48.722;9.316;2023-01-15T08:52:58;97111.81;;;5.18;100.00
2785;BME280;57944;48.722;9.316;2023-01-15T08:55:28;97121.34;;;5.15;100.00
2785;BME280;57944;48.722;9.316;2023-01-15T08:57:58;97125.00;;;5.13;100.00
2785;BME280;57944;48.722;9.316;2023-01-15T09:00:29;97120.06;;;5.26;100.00
2785;BME280;57944;48.722;9.316;2023-01-15T09:02:59;97140.47;;;5.25;100.00
2785;BME280;57944;48.722;9.316;2023-01-15T09:05:29;97139.13;;;5.29;100.00
2785;BME280;57944;48.722;9.316;2023-01-15T09:08:02;97146.66;;;5.22;100.00
2785;BME280;57944;48.722;9.316;2023-01-15T09:10:33;97140.84;;;5.43;100.00
2785;BME280;57944;48.722;9.316;2023-01-15T09:13:04;97142.78;;;5.41;100.00
2785;BME280;57944;48.722;9.316;2023-01-15T09:15:34;97141.31;;;5.53;100.00
2785;BME280;57944;48.722;9.316;2023-01-15T09:18:04;97144.34;;;5.64;100.00
2785;BME280;57944;48.722;9.316;2023-01-15T09:20:36;97154.75;;;5.75;100.00
2785;BME280;57944;48.722;9.316;2023-01-15T09:23:09;97151.94;;;5.64;100.00
2785;BME280;57944;48.722;9.316;2023-01-15T09:25:39;97159.91;;;5.46;100.00
2785;BME280;57944;48.722;9.316;2023-01-15T09:28:10;97154.03;;;5.38;100.00
2785;BME280;57944;48.722;9.316;2023-01-15T09:30:40;97155.53;;;5.33;100.00
2785;BME280;57944;48.722;9.316;2023-01-15T09:33:10;97155.25;;;5.28;100.00
2785;BME280;57944;48.722;9.316;2023-01-15T09:35:42;97161.50;;;5.32;100.00
2785;BME280;57944;48.722;9.316;2023-01-15T09:38:17;97164.19;;;5.67;100.00
2785;BME280;57944;48.722;9.316;2023-01-15T09:40:51;97177.66;;;5.74;100.00
2785;BME280;57944;48.722;9.316;2023-01-15T09:43:45;97169.84;;;5.90;100.00
2785;BME280;57944;48.722;9.316;2023-01-15T09:46:24;97172.03;;;5.93;100.00
2785;BME280;57944;48.722;9.316;2023-01-15T09:49:11;97179.47;;;5.95;100.00
2785;BME280;57944;48.722;9.316;2023-01-15T09:51:59;97174.13;;;5.90;100.00
2785;BME280;57944;48.722;9.316;2023-01-15T09:54:48;97183.09;;;5.71;100.00
2785;BME280;57944;48.722;9.316;2023-01-15T09:57:24;97185.09;;;5.75;100.00
2785;BME280;57944;48.722;9.316;2023-01-15T09:59:57;97188.16;;;5.71;100.00
2785;BME280;57944;48.722;9.316;2023-01-15T10:02:44;97187.09;;;5.80;100.00
2785;BME280;57944;48.722;9.316;2023-01-15T10:05:23;97190.69;;;5.92;100.00
2785;BME280;57944;48.722;9.316;2023-01-15T10:08:02;97193.03;;;5.72;100.00
2785;BME280;57944;48.722;9.316;2023-01-15T10:10:49;97199.38;;;5.83;100.00
2785;BME280;57944;48.722;9.316;2023-01-15T10:13:30;97201.16;;;5.68;100.00
2785;BME280;57944;48.722;9.316;2023-01-15T10:16:05;97205.63;;;5.66;100.00
2785;BME280;57944;48.722;9.316;2023-01-15T10:18:36;97202.41;;;5.57;100.00
2785;BME280;57944;48.722;9.316;2023-01-15T10:21:28;97213.78;;;5.46;100.00
2785;BME280;57944;48.722;9.316;2023-01-15T10:24:05;97213.88;;;5.38;100.00
2785;BME280;57944;48.722;9.316;2023-01-15T10:26:51;97226.69;;;5.36;100.00
2785;BME280;57944;48.722;9.316;2023-01-15T10:29:45;97236.91;;;5.13;100.00
2785;BME280;57944;48.722;9.316;2023-01-15T10:32:27;97239.69;;;5.19;100.00
2785;BME280;57944;48.722;9.316;2023-01-15T10:35:21;97244.84;;;5.10;100.00
2785;BME280;57944;48.722;9.316;2023-01-15T10:37:58;97246.75;;;5.08;100.00
2785;BME280;57944;48.722;9.316;2023-01-15T10:43:56;97252.13;;;5.20;100.00
2785;BME280;57944;48.722;9.316;2023-01-15T10:46:32;97244.44;;;5.43;100.00
2785;BME280;57944;48.722;9.316;2023-01-15T10:49:11;97247.81;;;5.50;100.00
2785;BME280;57944;48.722;9.316;2023-01-15T10:51:45;97250.03;;;5.38;100.00
2785;BME280;57944;48.722;9.316;2023-01-15T10:54:24;97247.56;;;5.45;100.00
2785;BME280;57944;48.722;9.316;2023-01-15T10:57:03;97257.06;;;5.43;100.00
2785;BME280;57944;48.722;9.316;2023-01-15T10:59:46;97258.13;;;5.34;100.00
2785;BME280;57944;48.722;9.316;2023-01-15T11:02:28;97248.22;;;5.18;100.00
2785;BME280;57944;48.722;9.316;2023-01-15T11:05:01;97238.38;;;5.08;100.00
2785;BME280;57944;48.722;9.316;2023-01-15T11:07:37;97252.75;;;4.92;100.00
2785;BME280;57944;48.722;9.316;2023-01-15T11:10:31;97270.63;;;4.68;100.00
2785;BME280;57944;48.722;9.316;2023-01-15T11:13:15;97280.38;;;4.56;100.00
2785;BME280;57944;48.722;9.316;2023-01-15T11:16:04;97293.50;;;4.29;100.00
2785;BME280;57944;48.722;9.316;2023-01-15T11:18:56;97286.31;;;3.71;100.00
2785;BME280;57944;48.722;9.316;2023-01-15T11:21:43;97293.19;;;3.77;100.00
2785;BME280;57944;48.722;9.316;2023-01-15T11:24:15;97293.91;;;3.63;100.00
2785;BME280;57944;48.722;9.316;2023-01-15T11:26:50;97306.19;;;3.58;100.00
2785;BME280;57944;48.722;9.316;2023-01-15T11:29:31;97322.72;;;3.61;100.00
2785;BME280;57944;48.722;9.316;2023-01-15T11:32:22;97327.59;;;3.62;100.00
2785;BME280;57944;48.722;9.316;2023-01-15T11:34:55;97327.59;;;3.62;100.00
2785;BME280;57944;48.722;9.316;2023-01-15T11:37:26;97330.72;;;3.64;100.00
2785;BME280;57944;48.722;9.316;2023-01-15T11:39:59;97328.84;;;3.66;100.00
2785;BME280;57944;48.722;9.316;2023-01-15T11:42:36;97350.56;;;3.67;100.00
2785;BME280;57944;48.722;9.316;2023-01-15T11:45:21;97359.25;;;3.56;100.00
2785;BME280;57944;48.722;9.316;2023-01-15T11:48:15;97374.84;;;3.60;100.00
2785;BME280;57944;48.722;9.316;2023-01-15T11:51:05;97353.97;;;3.43;100.00
2785;BME280;57944;48.722;9.316;2023-01-15T11:53:42;97362.63;;;3.41;100.00
2785;BME280;57944;48.722;9.316;2023-01-15T11:56:17;97353.34;;;3.33;100.00
2785;BME280;57944;48.722;9.316;2023-01-15T11:58:50;97360.13;;;3.32;100.00
2785;BME280;57944;48.722;9.316;2023-01-15T12:01:24;97370.22;;;3.24;100.00
2785;BME280;57944;48.722;9.316;2023-01-15T12:04:02;97358.88;;;3.20;100.00
2785;BME280;57944;48.722;9.316;2023-01-15T12:06:36;97367.72;;;3.16;100.00
2785;BME280;57944;48.722;9.316;2023-01-15T12:09:23;97360.00;;;3.09;100.00
2785;BME280;57944;48.722;9.316;2023-01-15T12:12:09;97368.81;;;3.13;100.00
2785;BME280;57944;48.722;9.316;2023-01-15T12:15:07;97371.97;;;3.16;100.00
2785;BME280;57944;48.722;9.316;2023-01-15T12:18:01;97375.56;;;3.21;100.00
2785;BME280;57944;48.722;9.316;2023-01-15T12:20:54;97371.09;;;3.40;100.00
2785;BME280;57944;48.722;9.316;2023-01-15T12:24:01;97378.31;;;3.51;100.00
2785;BME280;57944;48.722;9.316;2023-01-15T12:26:55;97380.06;;;3.50;100.00
2785;BME280;57944;48.722;9.316;2023-01-15T12:29:42;97390.13;;;3.50;100.00
2785;BME280;57944;48.722;9.316;2023-01-15T12:32:21;97381.91;;;3.65;100.00
2785;BME280;57944;48.722;9.316;2023-01-15T12:35:01;97379.56;;;3.63;100.00
2785;BME280;57944;48.722;9.316;2023-01-15T12:37:42;97378.28;;;3.67;100.00
2785;BME280;57944;48.722;9.316;2023-01-15T12:40:21;97379.56;;;3.63;100.00
2785;BME280;57944;48.722;9.316;2023-01-15T12:42:55;97376.84;;;3.73;100.00
2785;BME280;57944;48.722;9.316;2023-01-15T12:45:44;97371.78;;;3.81;100.00
2785;BME280;57944;48.722;9.316;2023-01-15T12:48:27;97363.66;;;4.02;100.00
2785;BME280;57944;48.722;9.316;2023-01-15T12:51:03;97362.84;;;4.33;100.00
2785;BME280;57944;48.722;9.316;2023-01-15T12:53:43;97352.47;;;4.28;100.00
2785;BME280;57944;48.722;9.316;2023-01-15T12:56:23;97358.97;;;4.45;100.00
2785;BME280;57944;48.722;9.316;2023-01-15T12:59:02;97368.41;;;4.51;100.00
2785;BME280;57944;48.722;9.316;2023-01-15T13:01:47;97373.00;;;4.70;100.00
2785;BME280;57944;48.722;9.316;2023-01-15T13:04:29;97370.81;;;4.67;100.00
2785;BME280;57944;48.722;9.316;2023-01-15T13:07:11;97377.91;;;4.49;100.00
2785;BME280;57944;48.722;9.316;2023-01-15T13:09:55;97383.09;;;4.47;100.00
2785;BME280;57944;48.722;9.316;2023-01-15T13:12:29;97380.47;;;4.41;100.00
2785;BME280;57944;48.722;9.316;2023-01-15T13:15:01;97378.63;;;4.58;100.00
2785;BME280;57944;48.722;9.316;2023-01-15T13:17:40;97379.00;;;4.69;100.00
2785;BME280;57944;48.722;9.316;2023-01-15T13:20:30;97384.06;;;4.69;100.00
2785;BME280;57944;48.722;9.316;2023-01-15T13:23:08;97398.06;;;4.95;100.00
2785;BME280;57944;48.722;9.316;2023-01-15T13:26:10;97395.53;;;4.95;100.00
2785;BME280;57944;48.722;9.316;2023-01-15T13:28:59;97384.75;;;5.01;100.00
2785;BME280;57944;48.722;9.316;2023-01-15T13:31:50;97390.25;;;5.05;100.00
2785;BME280;57944;48.722;9.316;2023-01-15T13:34:30;97399.38;;;4.91;100.00
2785;BME280;57944;48.722;9.316;2023-01-15T13:37:17;97395.00;;;4.85;100.00
2785;BME280;57944;48.722;9.316;2023-01-15T13:39:52;97400.34;;;4.82;100.00
2785;BME280;57944;48.722;9.316;2023-01-15T13:42:27;97401.25;;;4.89;100.00
2785;BME280;57944;48.722;9.316;2023-01-15T13:45:18;97400.66;;;4.87;100.00
2785;BME280;57944;48.722;9.316;2023-01-15T13:47:56;97406.38;;;4.81;100.00
2785;BME280;57944;48.722;9.316;2023-01-15T13:50:30;97412.25;;;4.73;100.00
2785;BME280;57944;48.722;9.316;2023-01-15T13:53:07;97414.41;;;4.61;100.00
2785;BME280;57944;48.722;9.316;2023-01-15T13:55:42;97417.53;;;4.63;100.00
2785;BME280;57944;48.722;9.316;2023-01-15T13:58:25;97433.50;;;4.79;100.00